Time;durP1;ratioP1;P1;durP2;ratioP2;P2;SDS_P1;SDS_P2;PMS_P1;PMS_P2;Temp;Humidity;BMP_temperature;BMP_pressure;BME280_temperature;BME280_humidity;BME280_pressure;Samples;Min_cycle;Max_cycle;Signal;HPM_P1;HPM_P2
2023/07/31 00:00:47;;;;;;;0.50;0.40;;;15.90;99.90;;;;;;5049026;28;21060;-80
2023/07/31 00:03:13;;;;;;;3.30;0.90;;;15.90;99.90;;;;;;5048694;28;20448;-81
2023/07/31 00:05:40;;;;;;;1.53;1.53;;;15.90;99.90;;;;;;5053060;28;21009;-80
2023/07/31 00:08:08;;;;;;;0.60;0.50;;;15.90;99.90;;;;;;5052166;28;20832;-79
2023/07/31 00:10:35;;;;;;;4.00;1.13;;;15.90;99.90;;;;;;5046663;28;20509;-80
2023/07/31 00:13:02;;;;;;;0.50;0.30;;;15.80;99.90;;;;;;5045003;28;20479;-80
2023/07/31 00:15:29;;;;;;;0.90;0.70;;;15.80;99.90;;;;;;5052658;28;20447;-80
2023/07/31 00:17:55;;;;;;;2.13;0.77;;;15.90;99.90;;;;;;5053906;28;20456;-79
2023/07/31 00:20:22;;;;;;;1.47;1.37;;;15.80;99.90;;;;;;5053868;28;20471;-80
2023/07/31 00:22:49;;;;;;;1.60;1.47;;;15.80;99.90;;;;;;5054610;28;20447;-80
2023/07/31 00:25:17;;;;;;;5.60;1.63;;;15.90;99.90;;;;;;5055121;28;20483;-79
2023/07/31 00:27:45;;;;;;;1.67;1.60;;;15.80;99.90;;;;;;5051775;28;20445;-79
2023/07/31 00:30:12;;;;;;;0.63;0.63;;;15.80;99.90;;;;;;5051870;28;20496;-80
2023/07/31 00:32:39;;;;;;;4.60;0.70;;;15.80;99.90;;;;;;5055043;28;20435;-80
2023/07/31 00:35:07;;;;;;;1.97;1.90;;;15.80;99.90;;;;;;5054060;28;20454;-80
2023/07/31 00:37:34;;;;;;;0.73;0.73;;;15.80;99.90;;;;;;5054767;28;20978;-80
2023/07/31 00:40:03;;;;;;;0.70;0.57;;;15.80;99.90;;;;;;5052323;28;20464;-81
2023/07/31 00:42:31;;;;;;;5.20;1.80;;;15.80;99.90;;;;;;5052881;28;20447;-81
2023/07/31 00:44:58;;;;;;;2.07;1.97;;;15.80;99.90;;;;;;5047671;28;20475;-80
2023/07/31 00:47:25;;;;;;;0.80;0.80;;;15.80;99.90;;;;;;5052398;28;20457;-79
2023/07/31 00:49:52;;;;;;;2.00;0.73;;;15.80;99.90;;;;;;5049641;28;20475;-79
2023/07/31 00:52:20;;;;;;;0.50;0.43;;;15.80;99.90;;;;;;5051526;28;20448;-80
2023/07/31 00:54:46;;;;;;;1.03;0.93;;;15.80;99.90;;;;;;5056100;28;20475;-80
2023/07/31 00:57:13;;;;;;;0.50;0.40;;;15.80;99.90;;;;;;5056271;28;20933;-80
2023/07/31 00:59:41;;;;;;;0.90;0.90;;;15.80;99.90;;;;;;5054849;28;21060;-81
2023/07/31 01:02:08;;;;;;;0.40;0.30;;;15.90;99.90;;;;;;5055348;28;20554;-80
2023/07/31 01:04:36;;;;;;;0.50;0.40;;;15.90;99.90;;;;;;5050367;28;20484;-80
2023/07/31 01:07:12;;;;;;;0.70;0.70;;;15.90;99.90;;;;;;5048630;28;20464;-81
2023/07/31 01:09:45;;;;;;;0.50;0.40;;;15.90;99.90;;;;;;5050447;28;20556;-80
2023/07/31 01:12:15;;;;;;;0.63;0.63;;;15.90;99.90;;;;;;5052620;28;20440;-80
2023/07/31 01:14:52;;;;;;;1.80;1.70;;;15.80;99.90;;;;;;5049566;28;20447;-79
2023/07/31 01:17:18;;;;;;;0.50;0.30;;;15.80;99.90;;;;;;5048858;28;20448;-80
2023/07/31 01:19:46;;;;;;;1.20;0.83;;;15.90;99.90;;;;;;5051786;28;20468;-80
2023/07/31 01:22:34;;;;;;;13.13;3.03;;;15.90;99.90;;;;;;5052601;28;20505;-80
2023/07/31 01:25:15;;;;;;;1.17;1.03;;;15.90;99.90;;;;;;5042018;28;20483;-80
2023/07/31 01:27:51;;;;;;;1.00;0.87;;;15.90;99.90;;;;;;5051336;28;20959;-80
2023/07/31 01:30:23;;;;;;;0.60;0.60;;;15.90;99.90;;;;;;5052781;28;20459;-80
2023/07/31 01:32:52;;;;;;;0.60;0.50;;;15.90;99.90;;;;;;5048763;28;20460;-81
2023/07/31 01:35:19;;;;;;;0.80;0.63;;;15.90;99.90;;;;;;5047983;28;20460;-80
2023/07/31 01:37:46;;;;;;;0.50;0.40;;;15.90;99.90;;;;;;5048401;28;20444;-80
2023/07/31 01:40:13;;;;;;;0.50;0.40;;;15.90;99.90;;;;;;5047951;28;20540;-80
2023/07/31 01:42:40;;;;;;;0.50;0.40;;;15.90;99.90;;;;;;5056149;28;20440;-80
2023/07/31 01:45:09;;;;;;;0.73;0.73;;;15.90;99.90;;;;;;5048051;28;20472;-80
2023/07/31 01:47:36;;;;;;;0.57;0.57;;;15.80;99.90;;;;;;5048529;28;20454;-82
2023/07/31 01:50:03;;;;;;;1.20;1.10;;;15.90;99.90;;;;;;5051611;28;20527;-80
2023/07/31 01:52:30;;;;;;;2.40;1.20;;;15.90;99.90;;;;;;5049394;28;20445;-80
2023/07/31 01:54:56;;;;;;;1.47;0.83;;;15.90;99.90;;;;;;5046581;28;20448;-79
2023/07/31 01:57:23;;;;;;;0.50;0.40;;;15.90;99.90;;;;;;5045805;28;20452;-79
2023/07/31 01:59:50;;;;;;;0.50;0.40;;;15.80;99.90;;;;;;5046334;28;20562;-79
2023/07/31 02:02:18;;;;;;;1.17;0.70;;;15.90;99.90;;;;;;5046385;28;20443;-79
2023/07/31 02:04:45;;;;;;;1.30;0.73;;;15.90;99.90;;;;;;5043555;28;20494;-81
2023/07/31 02:07:12;;;;;;;0.50;0.50;;;15.90;99.90;;;;;;5043915;28;20454;-80
2023/07/31 02:09:38;;;;;;;0.50;0.30;;;15.90;99.90;;;;;;5043808;28;21015;-80
2023/07/31 02:12:08;;;;;;;0.50;0.50;;;15.90;99.90;;;;;;5046894;28;20454;-80
2023/07/31 02:14:35;;;;;;;0.50;0.40;;;16.00;99.90;;;;;;5044905;28;20448;-79
2023/07/31 02:17:01;;;;;;;0.50;0.40;;;16.00;99.90;;;;;;5045159;22;20493;-77
2023/07/31 02:19:29;;;;;;;0.50;0.30;;;16.00;99.90;;;;;;5030255;28;20886;-77
2023/07/31 02:21:56;;;;;;;2.13;2.03;;;16.00;99.90;;;;;;5032192;28;20467;-78
2023/07/31 02:24:23;;;;;;;0.93;0.83;;;16.00;99.90;;;;;;5039569;28;20542;-78
2023/07/31 02:26:50;;;;;;;0.50;0.43;;;16.00;99.90;;;;;;5042618;28;20479;-78
2023/07/31 02:29:16;;;;;;;2.00;1.90;;;16.00;99.90;;;;;;5043489;28;20455;-76
2023/07/31 02:31:43;;;;;;;1.20;1.10;;;16.00;99.90;;;;;;5042008;28;20610;-78
2023/07/31 02:34:10;;;;;;;3.17;0.97;;;16.00;99.90;;;;;;5040117;28;20459;-78
2023/07/31 02:36:38;;;;;;;0.50;0.50;;;16.00;99.90;;;;;;5039545;28;20468;-78
2023/07/31 02:39:05;;;;;;;0.50;0.40;;;16.00;99.90;;;;;;5042376;28;20450;-79
2023/07/31 02:41:31;;;;;;;0.50;0.40;;;16.00;99.90;;;;;;5041977;28;20452;-77
2023/07/31 02:43:58;;;;;;;0.50;0.40;;;16.00;99.90;;;;;;5034335;28;20447;-78
2023/07/31 02:46:25;;;;;;;2.40;2.20;;;16.00;99.90;;;;;;5042040;28;20471;-79
2023/07/31 02:48:52;;;;;;;0.90;0.80;;;16.00;99.90;;;;;;5039144;28;20452;-78
2023/07/31 02:51:20;;;;;;;0.50;0.40;;;16.10;99.90;;;;;;5038821;28;20444;-78
2023/07/31 02:53:49;;;;;;;2.97;2.87;;;16.10;99.90;;;;;;5040334;28;20484;-78
2023/07/31 02:56:16;;;;;;;2.80;1.70;;;16.10;99.90;;;;;;5042139;28;20468;-78
2023/07/31 02:58:43;;;;;;;1.70;1.13;;;16.10;99.90;;;;;;5040751;28;20821;-78
2023/07/31 03:01:09;;;;;;;1.70;0.80;;;16.10;99.90;;;;;;5038699;28;20527;-78
2023/07/31 03:03:36;;;;;;;0.80;0.50;;;16.10;99.90;;;;;;5038608;28;20447;-76
2023/07/31 03:06:03;;;;;;;1.70;0.60;;;16.10;99.90;;;;;;5042156;28;20487;-78
2023/07/31 03:08:29;;;;;;;1.83;1.73;;;16.10;99.90;;;;;;5041929;28;20924;-78
2023/07/31 03:10:59;;;;;;;0.50;0.40;;;16.10;99.90;;;;;;5038775;28;20440;-78
2023/07/31 03:13:26;;;;;;;1.27;0.87;;;16.10;99.90;;;;;;5040759;28;20813;-77
2023/07/31 03:15:52;;;;;;;0.70;0.70;;;16.10;99.90;;;;;;5043918;28;20853;-79
2023/07/31 03:18:19;;;;;;;0.50;0.40;;;16.20;99.90;;;;;;5045629;28;20564;-78
2023/07/31 03:20:46;;;;;;;7.60;2.00;;;16.10;99.90;;;;;;5043705;28;20448;-79
2023/07/31 03:23:13;;;;;;;0.70;0.63;;;16.20;99.90;;;;;;5042004;28;20448;-79
2023/07/31 03:25:42;;;;;;;1.10;0.80;;;16.20;99.90;;;;;;5041908;28;20857;-79
2023/07/31 03:28:10;;;;;;;0.50;0.50;;;16.20;99.90;;;;;;5045356;28;20436;-79
2023/07/31 03:30:38;;;;;;;1.53;1.43;;;16.20;99.90;;;;;;5044702;28;20458;-78
2023/07/31 03:33:04;;;;;;;1.43;1.03;;;16.20;99.90;;;;;;5041943;28;20888;-78
2023/07/31 03:35:31;;;;;;;0.50;0.47;;;16.20;99.90;;;;;;5041630;28;21002;-78
2023/07/31 03:37:58;;;;;;;38.40;1.90;;;16.20;99.90;;;;;;5044445;28;20808;-79
2023/07/31 03:40:25;;;;;;;0.50;0.37;;;16.30;99.90;;;;;;5045085;28;20448;-79
2023/07/31 03:42:51;;;;;;;1.00;1.00;;;16.30;99.90;;;;;;5042751;28;20447;-79
2023/07/31 03:45:20;;;;;;;7.50;0.80;;;16.30;99.90;;;;;;5041496;28;20481;-80
2023/07/31 03:47:46;;;;;;;1.23;0.90;;;16.30;99.90;;;;;;5042717;28;20448;-79
2023/07/31 03:50:13;;;;;;;3.37;0.97;;;16.30;99.90;;;;;;5045112;28;20804;-78
2023/07/31 03:52:40;;;;;;;0.70;0.70;;;16.30;99.90;;;;;;5044226;28;20457;-78
2023/07/31 03:55:07;;;;;;;0.50;0.50;;;16.40;99.90;;;;;;5041145;28;20454;-78
2023/07/31 03:57:34;;;;;;;0.50;0.30;;;16.40;99.90;;;;;;5041248;28;20468;-78
2023/07/31 04:00:00;;;;;;;0.50;0.40;;;16.40;99.90;;;;;;5044284;28;20444;-78
2023/07/31 04:02:29;;;;;;;14.53;1.03;;;16.40;99.90;;;;;;5044678;28;20450;-78
2023/07/31 04:04:55;;;;;;;0.50;0.33;;;16.50;99.90;;;;;;5041886;28;20482;-79
2023/07/31 04:07:22;;;;;;;0.50;0.40;;;16.50;99.90;;;;;;5041052;28;20465;-79
2023/07/31 04:09:49;;;;;;;0.50;0.40;;;16.60;99.90;;;;;;5042221;28;20818;-78
2023/07/31 04:12:16;;;;;;;0.77;0.60;;;16.60;99.90;;;;;;5044340;28;20444;-78
2023/07/31 04:14:42;;;;;;;1.43;1.33;;;16.60;99.90;;;;;;5043652;28;20813;-78
2023/07/31 04:17:09;;;;;;;0.73;0.73;;;16.60;99.90;;;;;;5040825;28;20704;-79
2023/07/31 04:19:37;;;;;;;2.63;2.53;;;16.70;99.90;;;;;;5040942;28;20793;-78
2023/07/31 04:22:04;;;;;;;0.50;0.40;;;16.70;99.90;;;;;;5043824;28;20443;-76
2023/07/31 04:24:31;;;;;;;0.50;0.30;;;16.70;99.90;;;;;;5043240;28;20436;-78
2023/07/31 04:26:58;;;;;;;0.93;0.93;;;16.70;99.90;;;;;;5041773;28;20460;-78
2023/07/31 04:29:25;;;;;;;1.07;0.97;;;16.70;99.90;;;;;;5040670;28;20440;-78
2023/07/31 04:31:51;;;;;;;0.50;0.40;;;16.70;99.90;;;;;;5041897;28;20444;-78
2023/07/31 04:34:18;;;;;;;0.50;0.40;;;16.70;99.90;;;;;;5043498;28;20468;-79
2023/07/31 04:36:46;;;;;;;1.13;1.13;;;16.70;99.90;;;;;;5051512;28;20470;-78
2023/07/31 04:39:13;;;;;;;0.50;0.40;;;16.60;99.90;;;;;;5040410;28;20460;-78
2023/07/31 04:41:40;;;;;;;0.50;0.50;;;16.60;99.90;;;;;;5040277;28;20456;-78
2023/07/31 04:44:06;;;;;;;0.90;0.90;;;16.60;99.90;;;;;;5043056;28;20450;-79
2023/07/31 04:46:33;;;;;;;0.50;0.50;;;16.70;99.90;;;;;;5043663;28;20479;-78
2023/07/31 04:49:00;;;;;;;6.03;2.00;;;16.70;99.90;;;;;;5041504;28;20443;-78
2023/07/31 04:51:27;;;;;;;1.37;1.27;;;16.70;99.90;;;;;;5040332;28;20933;-79
2023/07/31 04:53:55;;;;;;;0.50;0.40;;;16.70;99.90;;;;;;5044055;28;20813;-79
2023/07/31 04:56:22;;;;;;;1.47;0.70;;;16.70;99.90;;;;;;5041147;28;20447;-80
2023/07/31 04:58:48;;;;;;;0.50;0.40;;;16.70;99.90;;;;;;5045975;28;20426;-79
2023/07/31 05:01:15;;;;;;;0.50;0.30;;;16.70;99.90;;;;;;5042896;28;20456;-78
2023/07/31 05:03:42;;;;;;;0.80;0.70;;;16.70;99.90;;;;;;5036233;28;20459;-79
2023/07/31 05:06:09;;;;;;;0.50;0.37;;;16.70;99.90;;;;;;5036187;28;20988;-78
2023/07/31 05:08:35;;;;;;;0.50;0.30;;;16.70;99.90;;;;;;5042336;28;20444;-78
2023/07/31 05:11:04;;;;;;;0.50;0.30;;;16.80;99.90;;;;;;5045371;28;20448;-79
2023/07/31 05:13:31;;;;;;;0.50;0.37;;;16.80;99.90;;;;;;5045274;28;20440;-78
2023/07/31 05:15:57;;;;;;;0.50;0.50;;;16.80;99.90;;;;;;5045283;28;20540;-79
2023/07/31 05:18:24;;;;;;;0.50;0.40;;;16.80;99.90;;;;;;5046883;28;20444;-79
2023/07/31 05:20:51;;;;;;;0.50;0.40;;;16.80;99.90;;;;;;5043739;28;20811;-79
2023/07/31 05:23:18;;;;;;;0.80;0.80;;;16.80;99.90;;;;;;5048151;28;20444;-78
2023/07/31 05:25:44;;;;;;;0.63;0.60;;;16.80;99.90;;;;;;5044196;28;20475;-78
2023/07/31 05:28:12;;;;;;;1.50;1.43;;;16.80;99.90;;;;;;5047974;28;20448;-77
2023/07/31 05:30:39;;;;;;;0.50;0.50;;;16.80;99.90;;;;;;5043138;28;20440;-79
2023/07/31 05:33:06;;;;;;;0.50;0.40;;;16.80;99.90;;;;;;5045199;28;20444;-78
2023/07/31 05:35:33;;;;;;;0.70;0.70;;;16.80;99.90;;;;;;5043113;28;20464;-78
2023/07/31 05:37:59;;;;;;;1.97;1.43;;;16.80;99.90;;;;;;5044677;28;20451;-78
2023/07/31 05:40:26;;;;;;;0.50;0.40;;;16.80;99.90;;;;;;5044677;28;20446;-77
2023/07/31 05:42:53;;;;;;;0.50;0.50;;;16.90;99.90;;;;;;5040523;28;20441;-78
2023/07/31 05:45:21;;;;;;;0.80;0.80;;;16.80;99.90;;;;;;5037029;28;20854;-79
2023/07/31 05:47:48;;;;;;;2.40;2.30;;;16.80;99.90;;;;;;5035444;28;20448;-78
2023/07/31 05:50:15;;;;;;;0.50;0.40;;;16.80;99.90;;;;;;5036556;28;20538;-78
2023/07/31 05:52:42;;;;;;;0.60;0.40;;;16.80;99.90;;;;;;5036842;28;20471;-79
2023/07/31 05:55:09;;;;;;;0.50;0.40;;;16.70;99.90;;;;;;5041314;28;20530;-79
2023/07/31 05:57:36;;;;;;;0.97;0.67;;;16.70;99.90;;;;;;5039200;28;20465;-78
2023/07/31 06:00:03;;;;;;;0.80;0.50;;;16.70;99.90;;;;;;5040820;28;20551;-78
2023/07/31 06:02:36;;;;;;;0.67;0.67;;;16.70;99.90;;;;;;5042013;28;20506;-79
2023/07/31 06:05:03;;;;;;;0.50;0.30;;;16.70;99.90;;;;;;5040371;28;20455;-78
2023/07/31 06:07:30;;;;;;;0.80;0.50;;;16.70;99.90;;;;;;5039014;28;20494;-78
2023/07/31 06:10:01;;;;;;;0.50;0.40;;;16.70;99.90;;;;;;5039791;28;20441;-77
2023/07/31 06:12:28;;;;;;;0.50;0.40;;;16.80;99.90;;;;;;5042403;28;20450;-78
2023/07/31 06:14:55;;;;;;;0.70;0.70;;;16.80;99.90;;;;;;5041297;28;20987;-79
2023/07/31 06:17:22;;;;;;;1.93;1.40;;;16.90;99.90;;;;;;5038898;28;20487;-79
2023/07/31 06:19:50;;;;;;;13.33;2.70;;;16.90;99.90;;;;;;5039058;28;20528;-79
2023/07/31 06:22:17;;;;;;;0.50;0.30;;;16.90;99.90;;;;;;5042455;28;20444;-78
2023/07/31 06:24:45;;;;;;;0.57;0.57;;;17.00;99.90;;;;;;5042229;28;20467;-79
2023/07/31 06:27:12;;;;;;;0.50;0.30;;;16.90;99.90;;;;;;5039289;28;20481;-79
2023/07/31 06:29:39;;;;;;;0.90;0.70;;;16.90;99.90;;;;;;5038922;28;20978;-78
2023/07/31 06:32:06;;;;;;;0.50;0.50;;;16.80;99.90;;;;;;5040214;28;20810;-76
2023/07/31 06:34:33;;;;;;;0.90;0.50;;;16.80;99.90;;;;;;5042092;28;20444;-78
2023/07/31 06:37:01;;;;;;;0.50;0.30;;;16.70;99.90;;;;;;5041269;28;20843;-79
2023/07/31 06:39:27;;;;;;;0.50;0.40;;;16.60;99.90;;;;;;5039046;28;20503;-79
2023/07/31 06:41:54;;;;;;;0.50;0.40;;;16.60;99.90;;;;;;5038702;28;20447;-79
2023/07/31 06:44:21;;;;;;;2.20;1.67;;;16.50;99.90;;;;;;5042455;28;20438;-79
2023/07/31 06:46:48;;;;;;;0.73;0.57;;;16.50;99.90;;;;;;5041844;28;20570;-78
2023/07/31 06:49:15;;;;;;;0.50;0.40;;;16.40;99.90;;;;;;5042471;28;20459;-79
2023/07/31 06:51:43;;;;;;;0.60;0.60;;;16.50;99.90;;;;;;5036331;28;20973;-78
2023/07/31 06:54:12;;;;;;;0.50;0.30;;;16.50;99.90;;;;;;5049338;28;20856;-78
2023/07/31 06:56:38;;;;;;;0.50;0.40;;;16.50;99.90;;;;;;5042000;28;20473;-78
2023/07/31 06:59:05;;;;;;;0.90;0.90;;;16.50;99.90;;;;;;5043374;28;20445;-77
2023/07/31 07:01:32;;;;;;;0.50;0.30;;;16.50;99.90;;;;;;5045526;28;20958;-78
2023/07/31 07:03:59;;;;;;;1.67;1.57;;;16.40;99.90;;;;;;5044999;28;20957;-80
2023/07/31 07:06:26;;;;;;;0.73;0.73;;;16.40;99.90;;;;;;5042868;28;20492;-78
2023/07/31 07:08:52;;;;;;;0.50;0.50;;;16.40;99.90;;;;;;5042275;28;20449;-77
2023/07/31 07:11:20;;;;;;;0.97;0.97;;;16.40;99.90;;;;;;5045004;28;20443;-77
2023/07/31 07:13:47;;;;;;;1.30;1.10;;;16.30;99.90;;;;;;5038261;28;20454;-78
2023/07/31 07:16:14;;;;;;;0.73;0.70;;;16.30;99.90;;;;;;5044304;28;20473;-80
2023/07/31 07:18:41;;;;;;;0.80;0.80;;;16.30;99.90;;;;;;5046106;28;20439;-79
2023/07/31 07:21:08;;;;;;;1.10;0.83;;;16.20;99.90;;;;;;5044094;28;20439;-77
2023/07/31 07:23:35;;;;;;;1.37;0.70;;;16.20;99.90;;;;;;5041785;28;20795;-79
2023/07/31 07:26:02;;;;;;;0.90;0.77;;;16.30;99.90;;;;;;5041540;28;20534;-78
2023/07/31 07:28:30;;;;;;;0.60;0.60;;;16.30;99.90;;;;;;5045051;28;20440;-80
2023/07/31 07:30:57;;;;;;;0.70;0.70;;;16.30;99.90;;;;;;5045398;28;20448;-80
2023/07/31 07:33:24;;;;;;;1.37;1.27;;;16.20;99.90;;;;;;5044818;28;20440;-78
2023/07/31 07:35:51;;;;;;;1.03;0.80;;;16.30;99.90;;;;;;5044658;28;20456;-78
2023/07/31 07:38:19;;;;;;;0.90;0.50;;;16.30;99.90;;;;;;5041973;28;20436;-77
2023/07/31 07:40:46;;;;;;;4.17;2.77;;;16.30;99.90;;;;;;5041388;28;20444;-78
2023/07/31 07:43:13;;;;;;;3.37;1.57;;;16.30;99.90;;;;;;5043048;28;20441;-78
2023/07/31 07:45:41;;;;;;;0.50;0.40;;;16.30;99.90;;;;;;5044224;28;20452;-78
2023/07/31 07:48:08;;;;;;;2.10;0.60;;;16.30;99.90;;;;;;5043456;28;20443;-78
2023/07/31 07:50:35;;;;;;;2.63;0.57;;;16.30;99.90;;;;;;5041452;28;20449;-78
2023/07/31 07:53:01;;;;;;;0.50;0.40;;;16.30;99.90;;;;;;5041258;28;20440;-78
2023/07/31 07:55:28;;;;;;;3.07;1.13;;;16.30;99.90;;;;;;5043860;28;20447;-77
2023/07/31 07:57:55;;;;;;;0.50;0.47;;;16.30;99.90;;;;;;5044819;28;20447;-78
2023/07/31 08:00:22;;;;;;;2.83;2.63;;;16.30;99.90;;;;;;5041279;28;20448;-74
2023/07/31 08:02:50;;;;;;;1.60;1.20;;;16.20;99.90;;;;;;5041416;28;20455;-78
2023/07/31 08:05:17;;;;;;;1.27;1.17;;;16.30;99.90;;;;;;5042531;28;20440;-78
2023/07/31 08:07:44;;;;;;;1.63;1.00;;;16.20;99.90;;;;;;5044744;28;20631;-79
2023/07/31 08:10:11;;;;;;;1.07;1.07;;;16.20;99.90;;;;;;5043757;28;20455;-79
2023/07/31 08:12:38;;;;;;;1.07;0.97;;;16.20;99.90;;;;;;5041619;28;20624;-79
2023/07/31 08:15:05;;;;;;;0.50;0.40;;;16.10;99.90;;;;;;5041016;28;20970;-78
2023/07/31 08:17:32;;;;;;;0.50;0.40;;;16.10;99.90;;;;;;5043807;28;20542;-78
2023/07/31 08:20:00;;;;;;;0.93;0.73;;;16.10;99.90;;;;;;5044423;28;20454;-79
2023/07/31 08:22:27;;;;;;;22.13;2.40;;;16.10;99.90;;;;;;5040405;28;20957;-79
2023/07/31 08:25:00;;;;;;;0.97;0.97;;;16.10;99.90;;;;;;5041441;28;20445;-79
2023/07/31 08:27:27;;;;;;;0.50;0.43;;;16.10;99.90;;;;;;5043771;28;20479;-79
2023/07/31 08:29:53;;;;;;;3.40;1.07;;;16.00;99.90;;;;;;5044415;28;20440;-81
2023/07/31 08:32:20;;;;;;;4.03;0.70;;;16.10;99.90;;;;;;5042237;28;20955;-79
2023/07/31 08:34:47;;;;;;;0.50;0.40;;;16.10;99.90;;;;;;5040541;28;20783;-79
2023/07/31 08:37:15;;;;;;;0.50;0.50;;;16.10;99.90;;;;;;5041875;28;20456;-79
2023/07/31 08:39:42;;;;;;;3.33;0.93;;;16.10;99.90;;;;;;5044395;28;20440;-78
2023/07/31 08:42:10;;;;;;;0.43;0.40;;;16.20;99.90;;;;;;5043221;28;20450;-78
2023/07/31 08:44:38;;;;;;;0.60;0.60;;;16.10;99.90;;;;;;5040062;28;20451;-79
2023/07/31 08:47:05;;;;;;;1.17;0.77;;;16.10;99.90;;;;;;5040643;28;20484;-79
2023/07/31 08:49:33;;;;;;;0.50;0.40;;;16.20;99.90;;;;;;5032536;28;20448;-78
2023/07/31 08:52:00;;;;;;;1.03;1.00;;;16.10;99.90;;;;;;5040050;28;20456;-78
2023/07/31 08:54:30;;;;;;;1.00;1.00;;;16.20;99.90;;;;;;5048073;28;20438;-81
2023/07/31 08:56:59;;;;;;;1.00;0.90;;;16.20;99.90;;;;;;5040200;28;20464;-78
2023/07/31 08:59:27;;;;;;;0.40;0.40;;;16.20;99.90;;;;;;5042445;28;20452;-78
2023/07/31 09:01:56;;;;;;;1.80;1.03;;;16.20;99.90;;;;;;5043517;28;20452;-79
2023/07/31 09:04:24;;;;;;;0.43;0.30;;;16.20;99.90;;;;;;5040951;28;20450;-78
2023/07/31 09:06:53;;;;;;;5.17;2.10;;;16.20;99.90;;;;;;5041001;28;20483;-79
2023/07/31 09:09:21;;;;;;;0.63;0.63;;;16.10;99.90;;;;;;5041948;28;20817;-76
2023/07/31 09:11:51;;;;;;;0.43;0.30;;;16.10;99.90;;;;;;5042733;28;20440;-80
2023/07/31 09:14:19;;;;;;;0.60;0.60;;;16.10;99.90;;;;;;5041660;28;20529;-79
2023/07/31 09:16:53;;;;;;;0.80;0.80;;;16.10;99.90;;;;;;5039362;28;20460;-81
2023/07/31 09:19:26;;;;;;;0.70;0.70;;;16.10;99.90;;;;;;5041508;28;20805;-77
2023/07/31 09:21:53;;;;;;;0.80;0.80;;;16.10;99.90;;;;;;5042921;28;20816;-79
2023/07/31 09:24:27;;;;;;;1.53;0.80;;;16.10;99.90;;;;;;5041006;28;20453;-80
2023/07/31 09:26:56;;;;;;;1.63;1.53;;;16.10;99.90;;;;;;5039330;28;20823;-78
2023/07/31 09:29:24;;;;;;;0.77;0.77;;;16.10;99.90;;;;;;5041410;28;20961;-77
2023/07/31 09:31:52;;;;;;;0.40;0.40;;;16.10;99.90;;;;;;5042852;28;20531;-78
2023/07/31 09:34:18;;;;;;;0.67;0.50;;;16.20;99.90;;;;;;5042134;28;20432;-81
2023/07/31 09:36:47;;;;;;;0.70;0.70;;;16.20;99.90;;;;;;5039972;28;20475;-80
2023/07/31 09:39:15;;;;;;;0.80;0.80;;;16.20;99.90;;;;;;5040059;28;20447;-78
2023/07/31 09:41:44;;;;;;;1.00;1.00;;;16.30;99.90;;;;;;5042843;28;20444;-77
2023/07/31 09:44:12;;;;;;;0.83;0.83;;;16.30;99.90;;;;;;5042460;28;20447;-77
2023/07/31 09:46:39;;;;;;;0.70;0.40;;;16.40;99.90;;;;;;5038737;28;20989;-78
2023/07/31 09:49:09;;;;;;;0.40;0.40;;;16.30;99.90;;;;;;5039184;28;20476;-78
2023/07/31 09:51:38;;;;;;;1.00;0.90;;;16.40;99.90;;;;;;5043997;28;20447;-79
2023/07/31 09:54:10;;;;;;;0.93;0.93;;;16.30;99.90;;;;;;5042179;28;20451;-78
2023/07/31 09:56:41;;;;;;;0.80;0.57;;;16.30;99.90;;;;;;5030767;28;20468;-77
2023/07/31 09:59:11;;;;;;;0.90;0.83;;;16.40;99.90;;;;;;5039405;28;20448;-78
2023/07/31 10:01:40;;;;;;;0.43;0.40;;;16.40;99.90;;;;;;5030571;28;20433;-78
2023/07/31 10:04:09;;;;;;;0.50;0.40;;;16.40;99.90;;;;;;5038999;28;20437;-78
2023/07/31 10:06:36;;;;;;;0.40;0.40;;;16.50;99.90;;;;;;5041378;28;20474;-78
2023/07/31 10:09:06;;;;;;;0.43;0.30;;;16.50;99.90;;;;;;5042677;28;20441;-77
2023/07/31 10:11:36;;;;;;;0.80;0.70;;;16.40;99.90;;;;;;5038968;28;20927;-76
2023/07/31 10:14:04;;;;;;;0.47;0.37;;;16.40;99.90;;;;;;5038604;28;20437;-76
2023/07/31 10:16:32;;;;;;;0.50;0.40;;;16.40;99.90;;;;;;5040362;28;20469;-77
2023/07/31 10:19:00;;;;;;;0.40;0.30;;;16.50;99.90;;;;;;5042104;28;20433;-78
2023/07/31 10:21:27;;;;;;;1.03;0.93;;;16.50;99.90;;;;;;5040518;28;20440;-77
2023/07/31 10:23:56;;;;;;;0.50;0.50;;;16.40;99.90;;;;;;5041934;28;20472;-80
2023/07/31 10:26:25;;;;;;;0.40;0.40;;;16.40;99.90;;;;;;5042926;28;21031;-78
2023/07/31 10:28:54;;;;;;;0.50;0.30;;;16.40;99.90;;;;;;5046938;28;20535;-77
2023/07/31 10:31:21;;;;;;;0.60;0.60;;;16.40;99.90;;;;;;5045473;28;20439;-77
2023/07/31 10:33:48;;;;;;;0.50;0.43;;;16.50;99.90;;;;;;5042391;28;20447;-77
2023/07/31 10:36:19;;;;;;;0.40;0.30;;;16.50;99.90;;;;;;5042988;28;20463;-78
2023/07/31 10:38:46;;;;;;;0.63;0.63;;;16.50;99.90;;;;;;5030067;28;20455;-78
2023/07/31 10:41:12;;;;;;;0.73;0.73;;;16.60;99.90;;;;;;5047609;28;20440;-79
2023/07/31 10:43:39;;;;;;;0.50;0.40;;;16.50;99.90;;;;;;5047068;28;20451;-79
2023/07/31 10:46:10;;;;;;;2.70;1.63;;;16.50;99.90;;;;;;5046721;28;20827;-78
2023/07/31 10:48:38;;;;;;;0.47;0.40;;;16.50;99.90;;;;;;5047580;28;20476;-79
2023/07/31 10:51:09;;;;;;;0.50;0.40;;;16.60;99.90;;;;;;5050095;28;20448;-79
2023/07/31 10:53:38;;;;;;;0.70;0.70;;;16.60;99.90;;;;;;5046903;28;20468;-80
2023/07/31 10:56:06;;;;;;;1.17;0.60;;;16.70;99.90;;;;;;5047464;28;20470;-78
2023/07/31 10:58:34;;;;;;;1.00;1.00;;;16.70;99.90;;;;;;5047507;28;20441;-77
2023/07/31 11:01:02;;;;;;;1.13;0.70;;;16.80;99.90;;;;;;5049577;28;20458;-79
2023/07/31 11:03:43;;;;;;;1.10;1.03;;;16.90;99.90;;;;;;5048261;28;20526;-74
2023/07/31 11:06:10;;;;;;;1.23;1.13;;;17.00;99.90;;;;;;5045404;28;20957;-77
2023/07/31 11:08:44;;;;;;;0.40;0.30;;;17.00;99.90;;;;;;5047140;28;21062;-78
2023/07/31 11:11:12;;;;;;;0.83;0.80;;;17.10;99.90;;;;;;5049338;28;20444;-77
2023/07/31 11:13:44;;;;;;;0.50;0.40;;;17.00;99.90;;;;;;5044273;28;20472;-77
2023/07/31 11:16:11;;;;;;;0.67;0.67;;;17.00;99.90;;;;;;5045591;28;20471;-78
2023/07/31 11:18:40;;;;;;;1.17;1.07;;;17.10;99.90;;;;;;5043227;28;20440;-78
2023/07/31 11:21:07;;;;;;;0.60;0.60;;;17.10;99.90;;;;;;5048026;28;20441;-79
2023/07/31 11:23:34;;;;;;;0.50;0.40;;;17.20;99.90;;;;;;5044079;28;20448;-79
2023/07/31 11:26:02;;;;;;;2.10;1.50;;;17.20;99.90;;;;;;5041699;28;20457;-79
2023/07/31 11:28:34;;;;;;;0.50;0.40;;;17.30;99.90;;;;;;5042294;28;20480;-78
2023/07/31 11:31:02;;;;;;;0.50;0.50;;;17.40;99.90;;;;;;5045690;28;20494;-79
2023/07/31 11:33:28;;;;;;;0.50;0.40;;;17.40;99.90;;;;;;5044815;28;20455;-77
2023/07/31 11:35:55;;;;;;;0.50;0.40;;;17.50;99.90;;;;;;5041419;28;20456;-78
2023/07/31 11:38:23;;;;;;;0.50;0.40;;;17.60;99.90;;;;;;5043010;28;20432;-76
2023/07/31 11:40:50;;;;;;;2.03;1.93;;;17.60;99.90;;;;;;5041709;28;20950;-78
2023/07/31 11:43:19;;;;;;;0.50;0.30;;;17.70;99.90;;;;;;5041724;28;20451;-78
2023/07/31 11:45:48;;;;;;;1.23;1.13;;;17.60;99.90;;;;;;5042956;28;20475;-80
2023/07/31 11:48:20;;;;;;;0.50;0.30;;;17.50;99.90;;;;;;5042027;28;21074;-79
2023/07/31 11:50:49;;;;;;;1.03;1.03;;;17.50;99.90;;;;;;5044067;28;20774;-78
2023/07/31 11:53:17;;;;;;;1.60;0.77;;;17.60;99.90;;;;;;5045334;28;20452;-78
2023/07/31 11:55:46;;;;;;;1.33;1.07;;;17.60;99.90;;;;;;5043690;28;20459;-77
2023/07/31 11:58:14;;;;;;;1.03;0.93;;;17.60;99.90;;;;;;5041309;28;20882;-79
2023/07/31 12:00:42;;;;;;;0.63;0.57;;;17.60;99.90;;;;;;5044329;28;20453;-78
2023/07/31 12:03:09;;;;;;;2.10;0.70;;;17.60;99.90;;;;;;5044821;28;20440;-79
2023/07/31 12:05:37;;;;;;;0.50;0.40;;;17.50;99.90;;;;;;5044309;28;20448;-78
2023/07/31 12:08:10;;;;;;;0.50;0.40;;;17.40;99.90;;;;;;5044167;28;20468;-78
2023/07/31 12:10:37;;;;;;;0.50;0.40;;;17.40;99.90;;;;;;5043461;28;20502;-78
2023/07/31 12:13:06;;;;;;;0.50;0.40;;;17.40;99.90;;;;;;5041446;28;20463;-78
2023/07/31 12:15:42;;;;;;;0.50;0.50;;;17.40;99.90;;;;;;5042638;28;20447;-78
2023/07/31 12:18:11;;;;;;;3.87;1.23;;;17.30;99.90;;;;;;5044265;28;20454;-77
2023/07/31 12:20:43;;;;;;;0.50;0.40;;;17.20;99.90;;;;;;5046586;28;20444;-80
2023/07/31 12:23:15;;;;;;;0.50;0.40;;;17.20;99.90;;;;;;5042980;28;20949;-75
2023/07/31 12:25:42;;;;;;;0.60;0.50;;;17.20;99.90;;;;;;5042160;28;20467;-78
2023/07/31 12:28:12;;;;;;;0.60;0.53;;;17.20;99.90;;;;;;5044197;28;20510;-78
2023/07/31 12:30:40;;;;;;;0.50;0.40;;;17.20;99.90;;;;;;5043786;28;20443;-78
2023/07/31 12:33:14;;;;;;;1.83;1.13;;;17.10;99.90;;;;;;5041400;28;20467;-78
2023/07/31 12:35:44;;;;;;;0.63;0.63;;;17.10;99.90;;;;;;5041776;28;20454;-78
2023/07/31 12:38:11;;;;;;;0.50;0.30;;;17.20;99.90;;;;;;5049321;28;20429;-79
2023/07/31 12:40:39;;;;;;;1.00;0.80;;;17.20;99.90;;;;;;5041188;28;20817;-78
2023/07/31 12:43:06;;;;;;;0.50;0.40;;;17.30;99.90;;;;;;5046063;28;20447;-79
2023/07/31 12:45:33;;;;;;;1.43;1.33;;;17.40;99.90;;;;;;5035038;28;20437;-79
2023/07/31 12:48:01;;;;;;;0.50;0.30;;;17.50;99.90;;;;;;5043620;28;20484;-79